Athens, Illinois
Current Conditions -  °F | °C
As of 9:52 AM on Thursday 18 Dec 2014 (Local Time) from KSPI Reporting Station
Light Snow Light Snow  
Wind Chill: 28°   Ceiling: 2500
Heat Index: 28°   Visibility: 1.5mi
Dew Point: 23°   Wind: 0mph
Humidity: 81%   Direction: NA
Pressure: 30.32"   Gusts: NA
Location:  39.96°N, 89.72°W
Report Text: KSPI 181552Z 00000KT 1 1/2SM R04/5500VP6000FT -SN BKN025 OVC029 M02/M05 A3032 RMK AO2 SLP276 P0001 T10221050
Loading
Personal Weather Stations






























Interactive Weather Map New forecast layout! Learn more

10-Day Weather Forecast

Advertisements
Track Severe Weather on mobile